sensor_id;sensor_type;location;lat;lon;timestamp;P1;durP1;ratioP1;P2;durP2;ratioP2
75603;SDS011;64187;51.010;13.792;2022-12-07T00:04:16;12.90;;;6.85;;
75603;SDS011;64187;51.010;13.792;2022-12-07T00:09:16;10.27;;;6.07;;
75603;SDS011;64187;51.010;13.792;2022-12-07T00:14:16;11.48;;;6.85;;
75603;SDS011;64187;51.010;13.792;2022-12-07T00:19:16;11.10;;;5.75;;
75603;SDS011;64187;51.010;13.792;2022-12-07T00:24:15;11.93;;;6.80;;
75603;SDS011;64187;51.010;13.792;2022-12-07T00:29:18;11.52;;;5.65;;
75603;SDS011;64187;51.010;13.792;2022-12-07T00:34:19;10.98;;;6.07;;
75603;SDS011;64187;51.010;13.792;2022-12-07T00:39:19;10.85;;;5.53;;
75603;SDS011;64187;51.010;13.792;2022-12-07T00:44:17;11.18;;;6.45;;
75603;SDS011;64187;51.010;13.792;2022-12-07T00:49:16;13.50;;;6.00;;
75603;SDS011;64187;51.010;13.792;2022-12-07T00:54:16;12.10;;;6.10;;
75603;SDS011;64187;51.010;13.792;2022-12-07T00:59:15;11.50;;;5.57;;
75603;SDS011;64187;51.010;13.792;2022-12-07T01:04:14;11.63;;;6.15;;
75603;SDS011;64187;51.010;13.792;2022-12-07T01:09:12;14.52;;;7.07;;
75603;SDS011;64187;51.010;13.792;2022-12-07T01:14:11;9.95;;;5.93;;
75603;SDS011;64187;51.010;13.792;2022-12-07T01:19:10;12.20;;;7.13;;
75603;SDS011;64187;51.010;13.792;2022-12-07T01:24:09;12.52;;;6.72;;
75603;SDS011;64187;51.010;13.792;2022-12-07T01:29:09;11.80;;;7.10;;
75603;SDS011;64187;51.010;13.792;2022-12-07T01:34:08;15.35;;;7.35;;
75603;SDS011;64187;51.010;13.792;2022-12-07T01:39:08;12.00;;;6.80;;
75603;SDS011;64187;51.010;13.792;2022-12-07T01:44:21;11.25;;;6.28;;
75603;SDS011;64187;51.010;13.792;2022-12-07T01:49:28;12.13;;;6.63;;
75603;SDS011;64187;51.010;13.792;2022-12-07T01:54:47;11.73;;;6.25;;
75603;SDS011;64187;51.010;13.792;2022-12-07T01:59:49;9.82;;;5.72;;
75603;SDS011;64187;51.010;13.792;2022-12-07T02:04:49;9.15;;;5.03;;
75603;SDS011;64187;51.010;13.792;2022-12-07T02:09:50;8.35;;;4.65;;
75603;SDS011;64187;51.010;13.792;2022-12-07T02:14:49;7.50;;;4.55;;
75603;SDS011;64187;51.010;13.792;2022-12-07T02:25:14;9.02;;;4.43;;
75603;SDS011;64187;51.010;13.792;2022-12-07T02:30:19;7.05;;;4.32;;
75603;SDS011;64187;51.010;13.792;2022-12-07T02:46:00;10.80;;;4.93;;
75603;SDS011;64187;51.010;13.792;2022-12-07T02:51:02;7.95;;;4.57;;
75603;SDS011;64187;51.010;13.792;2022-12-07T02:56:03;9.63;;;5.40;;
75603;SDS011;64187;51.010;13.792;2022-12-07T03:06:31;9.13;;;4.65;;
75603;SDS011;64187;51.010;13.792;2022-12-07T03:11:42;10.20;;;5.32;;
75603;SDS011;64187;51.010;13.792;2022-12-07T03:22:00;10.45;;;5.78;;
75603;SDS011;64187;51.010;13.792;2022-12-07T03:27:07;8.48;;;5.38;;
75603;SDS011;64187;51.010;13.792;2022-12-07T03:32:14;10.55;;;5.45;;
75603;SDS011;64187;51.010;13.792;2022-12-07T03:37:25;11.50;;;6.63;;
75603;SDS011;64187;51.010;13.792;2022-12-07T03:42:30;10.65;;;6.53;;
75603;SDS011;64187;51.010;13.792;2022-12-07T03:52:45;10.90;;;6.57;;
75603;SDS011;64187;51.010;13.792;2022-12-07T03:57:49;10.95;;;6.05;;
75603;SDS011;64187;51.010;13.792;2022-12-07T04:02:52;12.23;;;6.72;;
75603;SDS011;64187;51.010;13.792;2022-12-07T04:07:51;13.18;;;6.47;;
75603;SDS011;64187;51.010;13.792;2022-12-07T04:12:50;12.80;;;6.10;;
75603;SDS011;64187;51.010;13.792;2022-12-07T04:17:49;11.68;;;6.95;;
75603;SDS011;64187;51.010;13.792;2022-12-07T04:22:47;10.45;;;5.88;;
75603;SDS011;64187;51.010;13.792;2022-12-07T04:27:46;12.02;;;6.30;;
75603;SDS011;64187;51.010;13.792;2022-12-07T04:32:45;11.15;;;5.82;;
75603;SDS011;64187;51.010;13.792;2022-12-07T04:37:44;10.93;;;7.25;;
75603;SDS011;64187;51.010;13.792;2022-12-07T04:42:43;9.90;;;6.13;;
75603;SDS011;64187;51.010;13.792;2022-12-07T04:47:41;10.52;;;5.95;;
75603;SDS011;64187;51.010;13.792;2022-12-07T04:52:40;10.98;;;5.28;;
75603;SDS011;64187;51.010;13.792;2022-12-07T04:57:39;9.82;;;5.68;;
75603;SDS011;64187;51.010;13.792;2022-12-07T05:02:37;10.73;;;6.15;;
75603;SDS011;64187;51.010;13.792;2022-12-07T05:07:36;10.27;;;5.97;;
75603;SDS011;64187;51.010;13.792;2022-12-07T05:12:35;11.43;;;6.00;;
75603;SDS011;64187;51.010;13.792;2022-12-07T05:17:34;10.70;;;5.88;;
75603;SDS011;64187;51.010;13.792;2022-12-07T05:22:33;10.30;;;5.88;;
75603;SDS011;64187;51.010;13.792;2022-12-07T05:27:31;12.57;;;5.57;;
75603;SDS011;64187;51.010;13.792;2022-12-07T05:32:30;11.30;;;6.70;;
75603;SDS011;64187;51.010;13.792;2022-12-07T05:37:29;11.02;;;7.28;;
75603;SDS011;64187;51.010;13.792;2022-12-07T05:42:27;16.92;;;7.05;;
75603;SDS011;64187;51.010;13.792;2022-12-07T05:47:26;8.68;;;4.70;;
75603;SDS011;64187;51.010;13.792;2022-12-07T05:52:25;7.35;;;5.25;;
75603;SDS011;64187;51.010;13.792;2022-12-07T05:57:24;6.78;;;4.55;;
75603;SDS011;64187;51.010;13.792;2022-12-07T06:02:23;6.60;;;4.28;;
75603;SDS011;64187;51.010;13.792;2022-12-07T06:07:22;6.22;;;3.90;;
75603;SDS011;64187;51.010;13.792;2022-12-07T06:12:21;9.82;;;4.22;;
75603;SDS011;64187;51.010;13.792;2022-12-07T06:17:32;4.65;;;3.30;;
75603;SDS011;64187;51.010;13.792;2022-12-07T06:22:30;5.40;;;2.85;;
75603;SDS011;64187;51.010;13.792;2022-12-07T06:27:29;7.05;;;4.07;;
75603;SDS011;64187;51.010;13.792;2022-12-07T06:32:28;6.95;;;3.40;;
75603;SDS011;64187;51.010;13.792;2022-12-07T06:37:27;8.48;;;3.88;;
75603;SDS011;64187;51.010;13.792;2022-12-07T06:42:25;4.75;;;3.47;;
75603;SDS011;64187;51.010;13.792;2022-12-07T06:47:24;5.65;;;3.35;;
75603;SDS011;64187;51.010;13.792;2022-12-07T06:52:38;6.88;;;3.70;;
75603;SDS011;64187;51.010;13.792;2022-12-07T06:57:37;5.97;;;3.70;;
75603;SDS011;64187;51.010;13.792;2022-12-07T07:02:35;5.03;;;3.20;;
75603;SDS011;64187;51.010;13.792;2022-12-07T07:07:34;5.80;;;3.50;;
75603;SDS011;64187;51.010;13.792;2022-12-07T07:12:53;3.35;;;2.55;;
75603;SDS011;64187;51.010;13.792;2022-12-07T07:17:55;4.15;;;2.90;;
75603;SDS011;64187;51.010;13.792;2022-12-07T07:22:54;6.07;;;2.53;;
75603;SDS011;64187;51.010;13.792;2022-12-07T07:27:54;5.70;;;3.17;;
75603;SDS011;64187;51.010;13.792;2022-12-07T07:32:56;5.68;;;3.90;;
75603;SDS011;64187;51.010;13.792;2022-12-07T07:37:58;2.58;;;1.95;;
75603;SDS011;64187;51.010;13.792;2022-12-07T07:42:58;4.05;;;2.38;;
75603;SDS011;64187;51.010;13.792;2022-12-07T07:47:57;9.23;;;4.43;;
75603;SDS011;64187;51.010;13.792;2022-12-07T07:52:56;8.38;;;4.35;;
75603;SDS011;64187;51.010;13.792;2022-12-07T07:57:56;8.25;;;4.65;;
75603;SDS011;64187;51.010;13.792;2022-12-07T08:02:56;5.15;;;3.83;;
75603;SDS011;64187;51.010;13.792;2022-12-07T08:07:56;7.28;;;4.53;;
75603;SDS011;64187;51.010;13.792;2022-12-07T08:12:56;7.10;;;4.57;;
75603;SDS011;64187;51.010;13.792;2022-12-07T08:18:10;5.32;;;3.85;;
75603;SDS011;64187;51.010;13.792;2022-12-07T08:23:09;8.00;;;4.30;;
75603;SDS011;64187;51.010;13.792;2022-12-07T08:28:09;10.00;;;5.90;;
75603;SDS011;64187;51.010;13.792;2022-12-07T08:33:08;10.40;;;5.30;;
75603;SDS011;64187;51.010;13.792;2022-12-07T08:38:08;10.90;;;5.50;;
75603;SDS011;64187;51.010;13.792;2022-12-07T08:43:07;10.27;;;5.95;;
75603;SDS011;64187;51.010;13.792;2022-12-07T08:48:06;11.50;;;6.47;;
75603;SDS011;64187;51.010;13.792;2022-12-07T08:53:08;9.40;;;5.05;;
75603;SDS011;64187;51.010;13.792;2022-12-07T08:58:07;8.90;;;5.00;;
75603;SDS011;64187;51.010;13.792;2022-12-07T09:03:06;9.55;;;5.40;;
75603;SDS011;64187;51.010;13.792;2022-12-07T09:08:05;10.05;;;5.32;;
75603;SDS011;64187;51.010;13.792;2022-12-07T09:13:05;6.85;;;4.10;;
75603;SDS011;64187;51.010;13.792;2022-12-07T09:18:04;8.48;;;5.72;;
75603;SDS011;64187;51.010;13.792;2022-12-07T09:23:04;7.75;;;4.32;;
75603;SDS011;64187;51.010;13.792;2022-12-07T09:28:04;7.00;;;3.88;;
75603;SDS011;64187;51.010;13.792;2022-12-07T09:33:03;6.03;;;3.70;;
75603;SDS011;64187;51.010;13.792;2022-12-07T09:38:02;8.30;;;4.43;;
75603;SDS011;64187;51.010;13.792;2022-12-07T09:43:00;5.38;;;3.00;;
75603;SDS011;64187;51.010;13.792;2022-12-07T09:47:59;6.63;;;3.97;;
75603;SDS011;64187;51.010;13.792;2022-12-07T09:53:06;5.82;;;3.08;;
75603;SDS011;64187;51.010;13.792;2022-12-07T09:58:27;6.38;;;3.65;;
75603;SDS011;64187;51.010;13.792;2022-12-07T10:03:27;6.32;;;3.70;;
75603;SDS011;64187;51.010;13.792;2022-12-07T10:08:27;6.25;;;3.75;;
75603;SDS011;64187;51.010;13.792;2022-12-07T10:18:38;7.35;;;3.85;;
75603;SDS011;64187;51.010;13.792;2022-12-07T10:23:40;8.65;;;3.63;;
75603;SDS011;64187;51.010;13.792;2022-12-07T10:28:41;8.07;;;3.92;;
75603;SDS011;64187;51.010;13.792;2022-12-07T10:33:56;6.25;;;3.92;;
75603;SDS011;64187;51.010;13.792;2022-12-07T10:44:02;6.00;;;3.30;;
75603;SDS011;64187;51.010;13.792;2022-12-07T10:54:12;10.65;;;3.95;;
75603;SDS011;64187;51.010;13.792;2022-12-07T11:26:04;5.28;;;3.60;;
75603;SDS011;64187;51.010;13.792;2022-12-07T11:36:44;8.23;;;3.20;;
75603;SDS011;64187;51.010;13.792;2022-12-07T11:47:02;7.78;;;3.50;;
75603;SDS011;64187;51.010;13.792;2022-12-07T11:52:09;7.40;;;4.25;;
75603;SDS011;64187;51.010;13.792;2022-12-07T11:57:22;7.32;;;4.25;;
75603;SDS011;64187;51.010;13.792;2022-12-07T12:02:27;7.70;;;4.00;;
75603;SDS011;64187;51.010;13.792;2022-12-07T12:08:35;9.45;;;4.68;;
75603;SDS011;64187;51.010;13.792;2022-12-07T12:19:29;8.82;;;4.60;;
75603;SDS011;64187;51.010;13.792;2022-12-07T12:29:41;8.38;;;4.18;;
75603;SDS011;64187;51.010;13.792;2022-12-07T12:55:33;4.78;;;2.28;;
75603;SDS011;64187;51.010;13.792;2022-12-07T13:06:45;4.72;;;2.65;;
75603;SDS011;64187;51.010;13.792;2022-12-07T13:11:45;5.07;;;2.80;;
75603;SDS011;64187;51.010;13.792;2022-12-07T13:16:44;4.93;;;2.63;;
75603;SDS011;64187;51.010;13.792;2022-12-07T13:21:43;7.88;;;3.58;;
75603;SDS011;64187;51.010;13.792;2022-12-07T13:26:42;7.38;;;3.40;;
75603;SDS011;64187;51.010;13.792;2022-12-07T13:31:46;5.72;;;3.35;;
75603;SDS011;64187;51.010;13.792;2022-12-07T13:36:50;5.47;;;3.33;;
75603;SDS011;64187;51.010;13.792;2022-12-07T13:41:57;6.80;;;3.03;;
75603;SDS011;64187;51.010;13.792;2022-12-07T13:47:09;4.00;;;2.85;;
75603;SDS011;64187;51.010;13.792;2022-12-07T13:52:19;3.45;;;2.55;;
75603;SDS011;64187;51.010;13.792;2022-12-07T13:57:18;4.43;;;3.08;;
75603;SDS011;64187;51.010;13.792;2022-12-07T14:02:28;4.30;;;2.90;;
75603;SDS011;64187;51.010;13.792;2022-12-07T14:07:32;4.35;;;2.90;;
75603;SDS011;64187;51.010;13.792;2022-12-07T14:12:32;7.53;;;3.40;;
75603;SDS011;64187;51.010;13.792;2022-12-07T14:17:35;6.50;;;4.30;;
75603;SDS011;64187;51.010;13.792;2022-12-07T14:22:35;7.13;;;3.95;;
75603;SDS011;64187;51.010;13.792;2022-12-07T14:27:35;6.50;;;4.10;;
75603;SDS011;64187;51.010;13.792;2022-12-07T14:32:35;8.05;;;4.47;;
75603;SDS011;64187;51.010;13.792;2022-12-07T14:37:36;9.25;;;5.50;;
75603;SDS011;64187;51.010;13.792;2022-12-07T14:42:36;6.68;;;4.10;;
75603;SDS011;64187;51.010;13.792;2022-12-07T14:47:36;6.93;;;4.65;;
75603;SDS011;64187;51.010;13.792;2022-12-07T14:52:57;9.52;;;3.72;;
75603;SDS011;64187;51.010;13.792;2022-12-07T14:58:20;6.07;;;3.17;;
75603;SDS011;64187;51.010;13.792;2022-12-07T15:03:19;5.38;;;3.05;;
75603;SDS011;64187;51.010;13.792;2022-12-07T15:08:18;5.30;;;3.25;;
75603;SDS011;64187;51.010;13.792;2022-12-07T15:13:17;6.15;;;2.83;;
75603;SDS011;64187;51.010;13.792;2022-12-07T15:18:35;3.38;;;2.38;;
75603;SDS011;64187;51.010;13.792;2022-12-07T15:23:33;5.07;;;2.85;;
75603;SDS011;64187;51.010;13.792;2022-12-07T15:28:32;6.45;;;2.65;;
75603;SDS011;64187;51.010;13.792;2022-12-07T15:33:31;3.53;;;2.33;;
75603;SDS011;64187;51.010;13.792;2022-12-07T15:38:30;4.50;;;2.25;;
75603;SDS011;64187;51.010;13.792;2022-12-07T15:43:49;2.60;;;1.63;;
75603;SDS011;64187;51.010;13.792;2022-12-07T15:49:11;3.15;;;1.77;;
75603;SDS011;64187;51.010;13.792;2022-12-07T15:54:16;3.83;;;2.00;;
75603;SDS011;64187;51.010;13.792;2022-12-07T15:59:18;3.25;;;1.80;;
75603;SDS011;64187;51.010;13.792;2022-12-07T16:04:17;4.18;;;2.10;;
75603;SDS011;64187;51.010;13.792;2022-12-07T16:09:15;4.80;;;2.28;;
75603;SDS011;64187;51.010;13.792;2022-12-07T16:14:14;4.47;;;2.17;;
75603;SDS011;64187;51.010;13.792;2022-12-07T16:19:13;4.97;;;2.10;;
75603;SDS011;64187;51.010;13.792;2022-12-07T16:24:12;3.25;;;2.28;;
75603;SDS011;64187;51.010;13.792;2022-12-07T16:29:13;6.63;;;2.20;;
75603;SDS011;64187;51.010;13.792;2022-12-07T16:34:12;4.55;;;2.58;;
75603;SDS011;64187;51.010;13.792;2022-12-07T16:39:11;5.65;;;2.70;;
75603;SDS011;64187;51.010;13.792;2022-12-07T16:44:11;3.75;;;2.25;;
75603;SDS011;64187;51.010;13.792;2022-12-07T16:49:12;3.72;;;2.22;;
75603;SDS011;64187;51.010;13.792;2022-12-07T16:54:12;2.75;;;2.03;;
75603;SDS011;64187;51.010;13.792;2022-12-07T16:59:11;4.25;;;2.97;;
75603;SDS011;64187;51.010;13.792;2022-12-07T17:04:10;3.72;;;2.50;;
75603;SDS011;64187;51.010;13.792;2022-12-07T17:09:09;3.90;;;2.42;;
75603;SDS011;64187;51.010;13.792;2022-12-07T17:14:18;4.60;;;2.47;;
75603;SDS011;64187;51.010;13.792;2022-12-07T17:19:35;4.78;;;2.90;;
75603;SDS011;64187;51.010;13.792;2022-12-07T17:24:34;7.78;;;2.60;;
75603;SDS011;64187;51.010;13.792;2022-12-07T17:29:33;3.72;;;2.22;;
75603;SDS011;64187;51.010;13.792;2022-12-07T17:34:32;3.97;;;2.83;;
75603;SDS011;64187;51.010;13.792;2022-12-07T17:39:31;6.65;;;3.00;;
75603;SDS011;64187;51.010;13.792;2022-12-07T17:44:31;6.38;;;2.80;;
75603;SDS011;64187;51.010;13.792;2022-12-07T17:49:30;3.65;;;2.63;;
75603;SDS011;64187;51.010;13.792;2022-12-07T17:54:29;4.97;;;2.60;;
75603;SDS011;64187;51.010;13.792;2022-12-07T17:59:27;4.20;;;2.55;;
75603;SDS011;64187;51.010;13.792;2022-12-07T18:04:26;6.05;;;2.88;;
75603;SDS011;64187;51.010;13.792;2022-12-07T18:09:25;5.05;;;3.17;;
75603;SDS011;64187;51.010;13.792;2022-12-07T18:14:24;4.53;;;2.38;;
75603;SDS011;64187;51.010;13.792;2022-12-07T18:19:23;4.45;;;2.40;;
75603;SDS011;64187;51.010;13.792;2022-12-07T18:24:22;5.38;;;2.53;;
75603;SDS011;64187;51.010;13.792;2022-12-07T18:29:32;5.35;;;2.17;;
75603;SDS011;64187;51.010;13.792;2022-12-07T18:34:32;4.57;;;2.58;;
75603;SDS011;64187;51.010;13.792;2022-12-07T18:39:31;4.80;;;1.67;;
75603;SDS011;64187;51.010;13.792;2022-12-07T18:44:31;2.92;;;1.70;;
75603;SDS011;64187;51.010;13.792;2022-12-07T18:49:30;7.05;;;2.22;;
75603;SDS011;64187;51.010;13.792;2022-12-07T18:54:29;2.95;;;1.42;;
75603;SDS011;64187;51.010;13.792;2022-12-07T18:59:28;2.35;;;1.88;;
75603;SDS011;64187;51.010;13.792;2022-12-07T19:04:46;4.20;;;1.83;;
75603;SDS011;64187;51.010;13.792;2022-12-07T19:09:45;5.40;;;1.73;;
75603;SDS011;64187;51.010;13.792;2022-12-07T19:14:44;2.65;;;1.80;;
75603;SDS011;64187;51.010;13.792;2022-12-07T19:19:43;2.83;;;1.77;;
75603;SDS011;64187;51.010;13.792;2022-12-07T19:24:43;2.58;;;1.77;;
75603;SDS011;64187;51.010;13.792;2022-12-07T19:29:45;4.50;;;2.17;;
75603;SDS011;64187;51.010;13.792;2022-12-07T19:34:45;3.35;;;2.30;;
75603;SDS011;64187;51.010;13.792;2022-12-07T19:39:45;4.63;;;2.38;;
75603;SDS011;64187;51.010;13.792;2022-12-07T19:44:45;5.22;;;2.45;;
75603;SDS011;64187;51.010;13.792;2022-12-07T19:49:44;4.88;;;2.50;;
75603;SDS011;64187;51.010;13.792;2022-12-07T19:54:43;5.30;;;2.85;;
75603;SDS011;64187;51.010;13.792;2022-12-07T19:59:42;4.13;;;2.78;;
75603;SDS011;64187;51.010;13.792;2022-12-07T20:04:41;3.83;;;2.88;;
75603;SDS011;64187;51.010;13.792;2022-12-07T20:09:40;7.13;;;3.15;;
75603;SDS011;64187;51.010;13.792;2022-12-07T20:14:39;5.95;;;2.80;;
75603;SDS011;64187;51.010;13.792;2022-12-07T20:19:38;5.65;;;2.90;;
75603;SDS011;64187;51.010;13.792;2022-12-07T20:24:37;6.38;;;2.58;;
75603;SDS011;64187;51.010;13.792;2022-12-07T20:29:36;8.35;;;2.70;;
75603;SDS011;64187;51.010;13.792;2022-12-07T20:34:35;3.72;;;2.10;;
75603;SDS011;64187;51.010;13.792;2022-12-07T20:39:34;4.07;;;2.13;;
75603;SDS011;64187;51.010;13.792;2022-12-07T20:44:33;5.15;;;2.40;;
75603;SDS011;64187;51.010;13.792;2022-12-07T20:49:33;4.80;;;2.42;;
75603;SDS011;64187;51.010;13.792;2022-12-07T20:54:32;4.60;;;2.63;;
75603;SDS011;64187;51.010;13.792;2022-12-07T20:59:31;4.63;;;2.40;;
75603;SDS011;64187;51.010;13.792;2022-12-07T21:04:39;3.80;;;2.47;;
75603;SDS011;64187;51.010;13.792;2022-12-07T21:09:38;3.50;;;2.50;;
75603;SDS011;64187;51.010;13.792;2022-12-07T21:14:40;5.80;;;2.67;;
75603;SDS011;64187;51.010;13.792;2022-12-07T21:19:40;2.70;;;2.10;;
75603;SDS011;64187;51.010;13.792;2022-12-07T21:24:38;3.63;;;1.95;;
75603;SDS011;64187;51.010;13.792;2022-12-07T21:29:39;4.45;;;2.40;;
75603;SDS011;64187;51.010;13.792;2022-12-07T21:34:42;5.60;;;2.42;;
75603;SDS011;64187;51.010;13.792;2022-12-07T21:39:41;4.57;;;2.55;;
75603;SDS011;64187;51.010;13.792;2022-12-07T21:44:40;5.35;;;2.63;;
75603;SDS011;64187;51.010;13.792;2022-12-07T21:49:38;5.32;;;2.50;;
75603;SDS011;64187;51.010;13.792;2022-12-07T21:54:37;3.42;;;2.65;;
75603;SDS011;64187;51.010;13.792;2022-12-07T21:59:37;5.28;;;3.00;;
75603;SDS011;64187;51.010;13.792;2022-12-07T22:04:36;3.65;;;2.20;;
75603;SDS011;64187;51.010;13.792;2022-12-07T22:09:35;3.90;;;2.80;;
75603;SDS011;64187;51.010;13.792;2022-12-07T22:14:33;6.53;;;3.15;;
75603;SDS011;64187;51.010;13.792;2022-12-07T22:19:51;5.35;;;2.80;;
75603;SDS011;64187;51.010;13.792;2022-12-07T22:24:50;3.78;;;2.25;;
75603;SDS011;64187;51.010;13.792;2022-12-07T22:29:49;6.07;;;2.42;;
75603;SDS011;64187;51.010;13.792;2022-12-07T22:34:48;6.13;;;3.17;;
75603;SDS011;64187;51.010;13.792;2022-12-07T22:39:47;8.25;;;2.97;;
75603;SDS011;64187;51.010;13.792;2022-12-07T22:44:46;6.60;;;2.97;;
75603;SDS011;64187;51.010;13.792;2022-12-07T22:49:45;4.43;;;2.40;;
75603;SDS011;64187;51.010;13.792;2022-12-07T22:54:43;5.90;;;2.50;;
75603;SDS011;64187;51.010;13.792;2022-12-07T22:59:42;3.08;;;1.83;;
75603;SDS011;64187;51.010;13.792;2022-12-07T23:04:41;3.38;;;2.35;;
75603;SDS011;64187;51.010;13.792;2022-12-07T23:09:40;7.75;;;2.38;;
75603;SDS011;64187;51.010;13.792;2022-12-07T23:14:39;6.00;;;2.40;;
75603;SDS011;64187;51.010;13.792;2022-12-07T23:19:38;4.65;;;2.95;;
75603;SDS011;64187;51.010;13.792;2022-12-07T23:24:36;3.47;;;2.17;;
75603;SDS011;64187;51.010;13.792;2022-12-07T23:29:35;5.28;;;2.22;;
75603;SDS011;64187;51.010;13.792;2022-12-07T23:34:34;3.55;;;2.38;;
75603;SDS011;64187;51.010;13.792;2022-12-07T23:39:33;5.60;;;2.55;;
75603;SDS011;64187;51.010;13.792;2022-12-07T23:44:32;4.85;;;2.60;;
75603;SDS011;64187;51.010;13.792;2022-12-07T23:49:30;6.13;;;2.30;;
75603;SDS011;64187;51.010;13.792;2022-12-07T23:54:29;5.10;;;2.55;;
75603;SDS011;64187;51.010;13.792;2022-12-07T23:59:28;4.35;;;2.60;;
